sensor_id;sensor_type;location;lat;lon;timestamp;P1;durP1;ratioP1;P2;durP2;ratioP2
28822;SDS011;15961;54.678;9.110;2023-04-21T00:00:00;0.20;;;0.20;;
28822;SDS011;15961;54.678;9.110;2023-04-21T00:02:25;0.20;;;0.20;;
28822;SDS011;15961;54.678;9.110;2023-04-21T00:04:51;0.20;;;0.20;;
28822;SDS011;15961;54.678;9.110;2023-04-21T00:07:17;0.20;;;0.20;;
28822;SDS011;15961;54.678;9.110;2023-04-21T00:09:44;0.20;;;0.20;;
28822;SDS011;15961;54.678;9.110;2023-04-21T00:12:09;0.10;;;0.10;;
28822;SDS011;15961;54.678;9.110;2023-04-21T00:14:35;0.20;;;0.20;;
28822;SDS011;15961;54.678;9.110;2023-04-21T00:17:01;0.20;;;0.20;;
28822;SDS011;15961;54.678;9.110;2023-04-21T00:19:26;0.20;;;0.20;;
28822;SDS011;15961;54.678;9.110;2023-04-21T00:21:53;0.20;;;0.20;;
28822;SDS011;15961;54.678;9.110;2023-04-21T00:24:22;0.20;;;0.20;;
28822;SDS011;15961;54.678;9.110;2023-04-21T00:26:52;0.20;;;0.20;;
28822;SDS011;15961;54.678;9.110;2023-04-21T00:29:17;0.20;;;0.20;;
28822;SDS011;15961;54.678;9.110;2023-04-21T00:31:43;0.20;;;0.20;;
28822;SDS011;15961;54.678;9.110;2023-04-21T00:34:08;0.20;;;0.20;;
28822;SDS011;15961;54.678;9.110;2023-04-21T00:36:34;0.30;;;0.30;;
28822;SDS011;15961;54.678;9.110;2023-04-21T00:39:00;0.17;;;0.17;;
28822;SDS011;15961;54.678;9.110;2023-04-21T00:41:27;0.20;;;0.20;;
28822;SDS011;15961;54.678;9.110;2023-04-21T00:44:02;0.20;;;0.20;;
28822;SDS011;15961;54.678;9.110;2023-04-21T00:46:29;0.20;;;0.20;;
28822;SDS011;15961;54.678;9.110;2023-04-21T00:48:55;0.20;;;0.20;;
28822;SDS011;15961;54.678;9.110;2023-04-21T00:51:22;0.20;;;0.20;;
28822;SDS011;15961;54.678;9.110;2023-04-21T00:53:49;0.20;;;0.20;;
28822;SDS011;15961;54.678;9.110;2023-04-21T00:56:17;0.20;;;0.20;;
28822;SDS011;15961;54.678;9.110;2023-04-21T00:58:43;0.20;;;0.20;;
28822;SDS011;15961;54.678;9.110;2023-04-21T01:01:10;0.20;;;0.20;;
28822;SDS011;15961;54.678;9.110;2023-04-21T01:03:37;0.20;;;0.20;;
28822;SDS011;15961;54.678;9.110;2023-04-21T01:06:02;0.20;;;0.20;;
28822;SDS011;15961;54.678;9.110;2023-04-21T01:08:28;0.20;;;0.20;;
28822;SDS011;15961;54.678;9.110;2023-04-21T01:10:54;0.20;;;0.20;;
28822;SDS011;15961;54.678;9.110;2023-04-21T01:13:19;0.20;;;0.20;;
28822;SDS011;15961;54.678;9.110;2023-04-21T01:15:46;0.20;;;0.20;;
28822;SDS011;15961;54.678;9.110;2023-04-21T01:18:12;0.20;;;0.20;;
28822;SDS011;15961;54.678;9.110;2023-04-21T01:20:38;0.20;;;0.20;;
28822;SDS011;15961;54.678;9.110;2023-04-21T01:23:04;0.20;;;0.20;;
28822;SDS011;15961;54.678;9.110;2023-04-21T01:25:29;0.20;;;0.20;;
28822;SDS011;15961;54.678;9.110;2023-04-21T01:27:55;0.17;;;0.17;;
28822;SDS011;15961;54.678;9.110;2023-04-21T01:30:20;0.20;;;0.20;;
28822;SDS011;15961;54.678;9.110;2023-04-21T01:32:46;0.15;;;0.15;;
28822;SDS011;15961;54.678;9.110;2023-04-21T01:35:12;0.20;;;0.20;;
28822;SDS011;15961;54.678;9.110;2023-04-21T01:37:37;0.20;;;0.20;;
28822;SDS011;15961;54.678;9.110;2023-04-21T01:40:04;0.20;;;0.20;;
28822;SDS011;15961;54.678;9.110;2023-04-21T01:42:31;0.25;;;0.25;;
28822;SDS011;15961;54.678;9.110;2023-04-21T01:44:58;0.10;;;0.10;;
28822;SDS011;15961;54.678;9.110;2023-04-21T01:47:24;0.20;;;0.20;;
28822;SDS011;15961;54.678;9.110;2023-04-21T01:49:50;0.20;;;0.20;;
28822;SDS011;15961;54.678;9.110;2023-04-21T01:52:16;0.20;;;0.20;;
28822;SDS011;15961;54.678;9.110;2023-04-21T01:54:42;0.20;;;0.20;;
28822;SDS011;15961;54.678;9.110;2023-04-21T01:57:07;0.20;;;0.20;;
28822;SDS011;15961;54.678;9.110;2023-04-21T01:59:33;0.20;;;0.20;;
28822;SDS011;15961;54.678;9.110;2023-04-21T02:01:58;0.20;;;0.20;;
28822;SDS011;15961;54.678;9.110;2023-04-21T02:04:24;0.20;;;0.20;;
28822;SDS011;15961;54.678;9.110;2023-04-21T02:06:50;0.20;;;0.20;;
28822;SDS011;15961;54.678;9.110;2023-04-21T02:09:15;0.20;;;0.20;;
28822;SDS011;15961;54.678;9.110;2023-04-21T02:11:44;0.20;;;0.20;;
28822;SDS011;15961;54.678;9.110;2023-04-21T02:14:09;0.10;;;0.10;;
28822;SDS011;15961;54.678;9.110;2023-04-21T02:16:35;0.20;;;0.20;;
28822;SDS011;15961;54.678;9.110;2023-04-21T02:19:00;0.20;;;0.20;;
28822;SDS011;15961;54.678;9.110;2023-04-21T02:21:27;0.20;;;0.20;;
28822;SDS011;15961;54.678;9.110;2023-04-21T02:23:54;0.20;;;0.20;;
28822;SDS011;15961;54.678;9.110;2023-04-21T02:26:20;0.15;;;0.15;;
28822;SDS011;15961;54.678;9.110;2023-04-21T02:28:46;0.10;;;0.10;;
28822;SDS011;15961;54.678;9.110;2023-04-21T02:31:11;0.17;;;0.17;;
28822;SDS011;15961;54.678;9.110;2023-04-21T02:33:37;0.20;;;0.20;;
28822;SDS011;15961;54.678;9.110;2023-04-21T02:36:03;0.22;;;0.22;;
28822;SDS011;15961;54.678;9.110;2023-04-21T02:38:29;0.20;;;0.20;;
28822;SDS011;15961;54.678;9.110;2023-04-21T02:40:55;0.30;;;0.30;;
28822;SDS011;15961;54.678;9.110;2023-04-21T02:43:21;0.20;;;0.20;;
28822;SDS011;15961;54.678;9.110;2023-04-21T02:45:47;0.17;;;0.17;;
28822;SDS011;15961;54.678;9.110;2023-04-21T02:48:12;0.10;;;0.10;;
28822;SDS011;15961;54.678;9.110;2023-04-21T02:50:38;0.10;;;0.10;;
28822;SDS011;15961;54.678;9.110;2023-04-21T02:53:04;0.20;;;0.20;;
28822;SDS011;15961;54.678;9.110;2023-04-21T02:55:30;0.10;;;0.10;;
28822;SDS011;15961;54.678;9.110;2023-04-21T02:57:55;0.20;;;0.20;;
28822;SDS011;15961;54.678;9.110;2023-04-21T03:00:21;0.20;;;0.20;;
28822;SDS011;15961;54.678;9.110;2023-04-21T03:02:46;0.20;;;0.20;;
28822;SDS011;15961;54.678;9.110;2023-04-21T03:05:12;0.20;;;0.20;;
28822;SDS011;15961;54.678;9.110;2023-04-21T03:07:38;0.10;;;0.10;;
28822;SDS011;15961;54.678;9.110;2023-04-21T03:10:04;0.20;;;0.20;;
28822;SDS011;15961;54.678;9.110;2023-04-21T03:12:30;0.20;;;0.20;;
28822;SDS011;15961;54.678;9.110;2023-04-21T03:14:56;0.20;;;0.20;;
28822;SDS011;15961;54.678;9.110;2023-04-21T03:17:22;0.10;;;0.10;;
28822;SDS011;15961;54.678;9.110;2023-04-21T03:19:48;0.10;;;0.10;;
28822;SDS011;15961;54.678;9.110;2023-04-21T03:22:14;0.20;;;0.20;;
28822;SDS011;15961;54.678;9.110;2023-04-21T03:24:39;0.20;;;0.20;;
28822;SDS011;15961;54.678;9.110;2023-04-21T03:27:07;0.30;;;0.30;;
28822;SDS011;15961;54.678;9.110;2023-04-21T03:29:34;0.20;;;0.20;;
28822;SDS011;15961;54.678;9.110;2023-04-21T03:32:00;0.20;;;0.20;;
28822;SDS011;15961;54.678;9.110;2023-04-21T03:34:25;0.20;;;0.20;;
28822;SDS011;15961;54.678;9.110;2023-04-21T03:36:51;0.20;;;0.20;;
28822;SDS011;15961;54.678;9.110;2023-04-21T03:39:16;0.20;;;0.20;;
28822;SDS011;15961;54.678;9.110;2023-04-21T03:41:42;0.20;;;0.20;;
28822;SDS011;15961;54.678;9.110;2023-04-21T03:44:07;0.20;;;0.20;;
28822;SDS011;15961;54.678;9.110;2023-04-21T03:46:33;0.17;;;0.17;;
28822;SDS011;15961;54.678;9.110;2023-04-21T03:48:58;0.28;;;0.28;;
28822;SDS011;15961;54.678;9.110;2023-04-21T03:51:24;0.20;;;0.20;;
28822;SDS011;15961;54.678;9.110;2023-04-21T03:53:51;0.20;;;0.20;;
28822;SDS011;15961;54.678;9.110;2023-04-21T03:56:16;0.20;;;0.20;;
28822;SDS011;15961;54.678;9.110;2023-04-21T03:58:42;0.20;;;0.20;;
28822;SDS011;15961;54.678;9.110;2023-04-21T04:01:07;0.20;;;0.20;;
28822;SDS011;15961;54.678;9.110;2023-04-21T04:03:33;0.20;;;0.20;;
28822;SDS011;15961;54.678;9.110;2023-04-21T04:05:58;0.17;;;0.17;;
28822;SDS011;15961;54.678;9.110;2023-04-21T04:08:24;0.20;;;0.20;;
28822;SDS011;15961;54.678;9.110;2023-04-21T04:10:50;0.20;;;0.20;;
28822;SDS011;15961;54.678;9.110;2023-04-21T04:13:15;0.20;;;0.20;;
28822;SDS011;15961;54.678;9.110;2023-04-21T04:15:41;0.20;;;0.20;;
28822;SDS011;15961;54.678;9.110;2023-04-21T04:18:06;0.20;;;0.20;;
28822;SDS011;15961;54.678;9.110;2023-04-21T04:20:32;0.28;;;0.28;;
28822;SDS011;15961;54.678;9.110;2023-04-21T04:22:57;0.20;;;0.20;;
28822;SDS011;15961;54.678;9.110;2023-04-21T04:25:23;0.20;;;0.20;;
28822;SDS011;15961;54.678;9.110;2023-04-21T04:27:48;0.20;;;0.20;;
28822;SDS011;15961;54.678;9.110;2023-04-21T04:30:14;0.30;;;0.30;;
28822;SDS011;15961;54.678;9.110;2023-04-21T04:32:40;0.20;;;0.20;;
28822;SDS011;15961;54.678;9.110;2023-04-21T04:35:06;0.20;;;0.20;;
28822;SDS011;15961;54.678;9.110;2023-04-21T04:37:34;0.20;;;0.20;;
28822;SDS011;15961;54.678;9.110;2023-04-21T04:40:01;0.20;;;0.20;;
28822;SDS011;15961;54.678;9.110;2023-04-21T04:42:29;0.20;;;0.20;;
28822;SDS011;15961;54.678;9.110;2023-04-21T04:44:58;0.20;;;0.20;;
28822;SDS011;15961;54.678;9.110;2023-04-21T04:47:25;0.30;;;0.30;;
28822;SDS011;15961;54.678;9.110;2023-04-21T04:49:51;0.30;;;0.30;;
28822;SDS011;15961;54.678;9.110;2023-04-21T04:52:16;0.28;;;0.28;;
28822;SDS011;15961;54.678;9.110;2023-04-21T04:54:42;0.20;;;0.20;;
28822;SDS011;15961;54.678;9.110;2023-04-21T04:57:07;0.20;;;0.20;;
28822;SDS011;15961;54.678;9.110;2023-04-21T04:59:33;0.20;;;0.20;;
28822;SDS011;15961;54.678;9.110;2023-04-21T05:02:00;0.10;;;0.10;;
28822;SDS011;15961;54.678;9.110;2023-04-21T05:04:26;0.10;;;0.10;;
28822;SDS011;15961;54.678;9.110;2023-04-21T05:06:52;0.22;;;0.22;;
28822;SDS011;15961;54.678;9.110;2023-04-21T05:09:18;0.20;;;0.20;;
28822;SDS011;15961;54.678;9.110;2023-04-21T05:11:43;0.20;;;0.20;;
28822;SDS011;15961;54.678;9.110;2023-04-21T05:14:09;0.20;;;0.20;;
28822;SDS011;15961;54.678;9.110;2023-04-21T05:16:34;0.20;;;0.20;;
28822;SDS011;15961;54.678;9.110;2023-04-21T05:19:00;0.20;;;0.20;;
28822;SDS011;15961;54.678;9.110;2023-04-21T05:21:26;0.10;;;0.10;;
28822;SDS011;15961;54.678;9.110;2023-04-21T05:23:53;0.20;;;0.20;;
28822;SDS011;15961;54.678;9.110;2023-04-21T05:26:19;0.20;;;0.20;;
28822;SDS011;15961;54.678;9.110;2023-04-21T05:28:45;0.10;;;0.10;;
28822;SDS011;15961;54.678;9.110;2023-04-21T05:31:14;0.10;;;0.10;;
28822;SDS011;15961;54.678;9.110;2023-04-21T05:33:39;0.20;;;0.20;;
28822;SDS011;15961;54.678;9.110;2023-04-21T05:36:05;0.15;;;0.15;;
28822;SDS011;15961;54.678;9.110;2023-04-21T05:38:33;0.20;;;0.20;;
28822;SDS011;15961;54.678;9.110;2023-04-21T05:40:58;0.15;;;0.15;;
28822;SDS011;15961;54.678;9.110;2023-04-21T05:43:24;0.10;;;0.10;;
28822;SDS011;15961;54.678;9.110;2023-04-21T05:45:49;0.20;;;0.20;;
28822;SDS011;15961;54.678;9.110;2023-04-21T05:48:15;0.20;;;0.20;;
28822;SDS011;15961;54.678;9.110;2023-04-21T05:50:40;0.20;;;0.20;;
28822;SDS011;15961;54.678;9.110;2023-04-21T05:53:06;0.20;;;0.20;;
28822;SDS011;15961;54.678;9.110;2023-04-21T05:55:35;0.20;;;0.20;;
28822;SDS011;15961;54.678;9.110;2023-04-21T05:58:01;0.20;;;0.20;;
28822;SDS011;15961;54.678;9.110;2023-04-21T06:00:28;0.13;;;0.13;;
28822;SDS011;15961;54.678;9.110;2023-04-21T06:02:56;0.20;;;0.20;;
28822;SDS011;15961;54.678;9.110;2023-04-21T06:05:24;0.20;;;0.20;;
28822;SDS011;15961;54.678;9.110;2023-04-21T06:07:50;0.20;;;0.20;;
28822;SDS011;15961;54.678;9.110;2023-04-21T06:10:16;0.17;;;0.17;;
28822;SDS011;15961;54.678;9.110;2023-04-21T06:12:42;0.10;;;0.10;;
28822;SDS011;15961;54.678;9.110;2023-04-21T06:15:07;0.20;;;0.20;;
28822;SDS011;15961;54.678;9.110;2023-04-21T06:17:36;0.20;;;0.20;;
28822;SDS011;15961;54.678;9.110;2023-04-21T06:20:02;0.10;;;0.10;;
28822;SDS011;15961;54.678;9.110;2023-04-21T06:22:28;0.10;;;0.10;;
28822;SDS011;15961;54.678;9.110;2023-04-21T06:24:53;0.20;;;0.20;;
28822;SDS011;15961;54.678;9.110;2023-04-21T06:27:19;0.20;;;0.20;;
28822;SDS011;15961;54.678;9.110;2023-04-21T06:29:44;0.13;;;0.13;;
28822;SDS011;15961;54.678;9.110;2023-04-21T06:32:13;0.10;;;0.10;;
28822;SDS011;15961;54.678;9.110;2023-04-21T06:34:38;0.20;;;0.20;;
28822;SDS011;15961;54.678;9.110;2023-04-21T06:37:04;0.17;;;0.17;;
28822;SDS011;15961;54.678;9.110;2023-04-21T06:39:29;0.10;;;0.10;;
28822;SDS011;15961;54.678;9.110;2023-04-21T06:41:55;0.17;;;0.17;;
28822;SDS011;15961;54.678;9.110;2023-04-21T06:44:22;0.20;;;0.20;;
28822;SDS011;15961;54.678;9.110;2023-04-21T06:46:47;0.20;;;0.20;;
28822;SDS011;15961;54.678;9.110;2023-04-21T06:49:13;0.30;;;0.30;;
28822;SDS011;15961;54.678;9.110;2023-04-21T06:51:38;0.20;;;0.20;;
28822;SDS011;15961;54.678;9.110;2023-04-21T06:54:04;0.20;;;0.20;;
28822;SDS011;15961;54.678;9.110;2023-04-21T06:56:30;0.20;;;0.20;;
28822;SDS011;15961;54.678;9.110;2023-04-21T06:58:56;0.20;;;0.20;;
28822;SDS011;15961;54.678;9.110;2023-04-21T07:01:22;0.20;;;0.20;;
28822;SDS011;15961;54.678;9.110;2023-04-21T07:03:50;0.20;;;0.20;;
28822;SDS011;15961;54.678;9.110;2023-04-21T07:06:18;0.20;;;0.20;;
28822;SDS011;15961;54.678;9.110;2023-04-21T07:08:44;0.20;;;0.20;;
28822;SDS011;15961;54.678;9.110;2023-04-21T07:11:09;0.10;;;0.10;;
28822;SDS011;15961;54.678;9.110;2023-04-21T07:13:35;0.20;;;0.20;;
28822;SDS011;15961;54.678;9.110;2023-04-21T07:16:00;0.13;;;0.13;;
28822;SDS011;15961;54.678;9.110;2023-04-21T07:18:26;0.20;;;0.20;;
28822;SDS011;15961;54.678;9.110;2023-04-21T07:20:51;0.20;;;0.20;;
28822;SDS011;15961;54.678;9.110;2023-04-21T07:23:17;0.20;;;0.20;;
28822;SDS011;15961;54.678;9.110;2023-04-21T07:25:43;0.10;;;0.10;;
28822;SDS011;15961;54.678;9.110;2023-04-21T07:28:08;0.10;;;0.10;;
28822;SDS011;15961;54.678;9.110;2023-04-21T07:30:35;0.15;;;0.15;;
28822;SDS011;15961;54.678;9.110;2023-04-21T07:33:01;0.20;;;0.20;;
28822;SDS011;15961;54.678;9.110;2023-04-21T07:35:26;0.20;;;0.20;;
28822;SDS011;15961;54.678;9.110;2023-04-21T07:37:52;0.10;;;0.10;;
28822;SDS011;15961;54.678;9.110;2023-04-21T07:40:17;0.20;;;0.20;;
28822;SDS011;15961;54.678;9.110;2023-04-21T07:42:43;0.10;;;0.10;;
28822;SDS011;15961;54.678;9.110;2023-04-21T07:45:09;0.10;;;0.10;;
28822;SDS011;15961;54.678;9.110;2023-04-21T07:47:35;0.20;;;0.20;;
28822;SDS011;15961;54.678;9.110;2023-04-21T07:50:04;0.10;;;0.10;;
28822;SDS011;15961;54.678;9.110;2023-04-21T07:52:30;0.20;;;0.20;;
28822;SDS011;15961;54.678;9.110;2023-04-21T07:54:56;0.10;;;0.10;;
28822;SDS011;15961;54.678;9.110;2023-04-21T07:57:21;0.15;;;0.15;;
28822;SDS011;15961;54.678;9.110;2023-04-21T07:59:49;0.10;;;0.10;;
28822;SDS011;15961;54.678;9.110;2023-04-21T08:02:15;0.20;;;0.20;;
28822;SDS011;15961;54.678;9.110;2023-04-21T08:04:40;0.20;;;0.20;;
28822;SDS011;15961;54.678;9.110;2023-04-21T08:07:06;0.13;;;0.13;;
28822;SDS011;15961;54.678;9.110;2023-04-21T08:09:36;0.20;;;0.20;;
28822;SDS011;15961;54.678;9.110;2023-04-21T08:12:02;0.10;;;0.10;;
28822;SDS011;15961;54.678;9.110;2023-04-21T08:14:28;0.20;;;0.20;;
28822;SDS011;15961;54.678;9.110;2023-04-21T08:16:53;0.10;;;0.10;;
28822;SDS011;15961;54.678;9.110;2023-04-21T08:19:19;0.10;;;0.10;;
28822;SDS011;15961;54.678;9.110;2023-04-21T08:21:44;0.10;;;0.10;;
28822;SDS011;15961;54.678;9.110;2023-04-21T08:24:10;0.20;;;0.20;;
28822;SDS011;15961;54.678;9.110;2023-04-21T08:26:36;0.10;;;0.10;;
28822;SDS011;15961;54.678;9.110;2023-04-21T08:29:01;0.20;;;0.20;;
28822;SDS011;15961;54.678;9.110;2023-04-21T08:31:31;0.10;;;0.10;;
28822;SDS011;15961;54.678;9.110;2023-04-21T08:34:00;0.10;;;0.10;;
28822;SDS011;15961;54.678;9.110;2023-04-21T08:36:26;0.20;;;0.20;;
28822;SDS011;15961;54.678;9.110;2023-04-21T08:38:52;0.10;;;0.10;;
28822;SDS011;15961;54.678;9.110;2023-04-21T08:41:17;0.10;;;0.10;;
28822;SDS011;15961;54.678;9.110;2023-04-21T08:43:46;0.20;;;0.20;;
28822;SDS011;15961;54.678;9.110;2023-04-21T08:46:12;0.20;;;0.20;;
28822;SDS011;15961;54.678;9.110;2023-04-21T08:48:39;0.10;;;0.10;;
28822;SDS011;15961;54.678;9.110;2023-04-21T08:51:06;0.10;;;0.10;;
28822;SDS011;15961;54.678;9.110;2023-04-21T08:53:35;0.20;;;0.20;;
28822;SDS011;15961;54.678;9.110;2023-04-21T08:56:02;0.10;;;0.10;;
28822;SDS011;15961;54.678;9.110;2023-04-21T08:58:28;0.10;;;0.10;;
28822;SDS011;15961;54.678;9.110;2023-04-21T09:00:53;0.10;;;0.10;;
28822;SDS011;15961;54.678;9.110;2023-04-21T09:03:23;0.20;;;0.20;;
28822;SDS011;15961;54.678;9.110;2023-04-21T09:06:00;0.10;;;0.10;;
28822;SDS011;15961;54.678;9.110;2023-04-21T09:08:30;0.10;;;0.10;;
28822;SDS011;15961;54.678;9.110;2023-04-21T09:10:56;0.10;;;0.10;;
28822;SDS011;15961;54.678;9.110;2023-04-21T09:13:28;0.20;;;0.20;;
28822;SDS011;15961;54.678;9.110;2023-04-21T09:15:55;0.20;;;0.20;;
28822;SDS011;15961;54.678;9.110;2023-04-21T09:18:22;0.10;;;0.10;;
28822;SDS011;15961;54.678;9.110;2023-04-21T09:20:51;0.10;;;0.10;;
28822;SDS011;15961;54.678;9.110;2023-04-21T09:23:29;0.10;;;0.10;;
28822;SDS011;15961;54.678;9.110;2023-04-21T09:25:54;0.10;;;0.10;;
28822;SDS011;15961;54.678;9.110;2023-04-21T09:28:20;0.10;;;0.10;;
28822;SDS011;15961;54.678;9.110;2023-04-21T09:30:45;0.10;;;0.10;;
28822;SDS011;15961;54.678;9.110;2023-04-21T09:33:15;0.20;;;0.20;;
28822;SDS011;15961;54.678;9.110;2023-04-21T09:35:44;0.15;;;0.15;;
28822;SDS011;15961;54.678;9.110;2023-04-21T09:38:11;0.10;;;0.10;;
28822;SDS011;15961;54.678;9.110;2023-04-21T09:40:37;0.10;;;0.10;;
28822;SDS011;15961;54.678;9.110;2023-04-21T09:43:04;0.10;;;0.10;;
28822;SDS011;15961;54.678;9.110;2023-04-21T09:45:33;0.10;;;0.10;;
28822;SDS011;15961;54.678;9.110;2023-04-21T09:47:59;0.10;;;0.10;;
28822;SDS011;15961;54.678;9.110;2023-04-21T09:50:26;0.10;;;0.10;;
28822;SDS011;15961;54.678;9.110;2023-04-21T09:52:53;0.10;;;0.10;;
28822;SDS011;15961;54.678;9.110;2023-04-21T09:55:24;0.10;;;0.10;;
28822;SDS011;15961;54.678;9.110;2023-04-21T09:57:55;0.10;;;0.10;;
28822;SDS011;15961;54.678;9.110;2023-04-21T10:00:24;0.10;;;0.10;;
28822;SDS011;15961;54.678;9.110;2023-04-21T10:02:56;0.10;;;0.10;;
28822;SDS011;15961;54.678;9.110;2023-04-21T10:05:22;0.10;;;0.10;;
28822;SDS011;15961;54.678;9.110;2023-04-21T10:07:48;0.10;;;0.10;;
28822;SDS011;15961;54.678;9.110;2023-04-21T10:10:24;0.20;;;0.20;;
28822;SDS011;15961;54.678;9.110;2023-04-21T10:12:52;0.10;;;0.10;;
28822;SDS011;15961;54.678;9.110;2023-04-21T10:15:28;0.10;;;0.10;;
28822;SDS011;15961;54.678;9.110;2023-04-21T10:18:17;0.10;;;0.10;;
28822;SDS011;15961;54.678;9.110;2023-04-21T10:20:55;0.10;;;0.10;;
28822;SDS011;15961;54.678;9.110;2023-04-21T10:34:11;0.10;;;0.10;;
28822;SDS011;15961;54.678;9.110;2023-04-21T10:40:03;0.10;;;0.10;;
28822;SDS011;15961;54.678;9.110;2023-04-21T10:44:42;0.10;;;0.10;;
28822;SDS011;15961;54.678;9.110;2023-04-21T10:47:08;0.10;;;0.10;;
28822;SDS011;15961;54.678;9.110;2023-04-21T10:49:38;0.10;;;0.10;;
28822;SDS011;15961;54.678;9.110;2023-04-21T10:52:09;0.10;;;0.10;;
28822;SDS011;15961;54.678;9.110;2023-04-21T10:54:41;0.13;;;0.13;;
28822;SDS011;15961;54.678;9.110;2023-04-21T10:57:11;0.10;;;0.10;;
28822;SDS011;15961;54.678;9.110;2023-04-21T10:59:38;0.10;;;0.10;;
28822;SDS011;15961;54.678;9.110;2023-04-21T11:02:04;0.10;;;0.10;;
28822;SDS011;15961;54.678;9.110;2023-04-21T11:04:38;0.10;;;0.10;;
28822;SDS011;15961;54.678;9.110;2023-04-21T11:07:17;0.10;;;0.10;;
28822;SDS011;15961;54.678;9.110;2023-04-21T11:09:47;0.10;;;0.10;;
28822;SDS011;15961;54.678;9.110;2023-04-21T11:12:31;0.10;;;0.10;;
28822;SDS011;15961;54.678;9.110;2023-04-21T11:17:33;0.10;;;0.10;;
28822;SDS011;15961;54.678;9.110;2023-04-21T11:20:00;0.10;;;0.10;;
28822;SDS011;15961;54.678;9.110;2023-04-21T11:22:27;0.08;;;0.08;;
28822;SDS011;15961;54.678;9.110;2023-04-21T11:24:54;0.10;;;0.10;;
28822;SDS011;15961;54.678;9.110;2023-04-21T11:27:21;0.10;;;0.10;;
28822;SDS011;15961;54.678;9.110;2023-04-21T11:29:50;0.10;;;0.10;;
28822;SDS011;15961;54.678;9.110;2023-04-21T11:32:16;0.10;;;0.10;;
28822;SDS011;15961;54.678;9.110;2023-04-21T11:34:42;0.10;;;0.10;;
28822;SDS011;15961;54.678;9.110;2023-04-21T11:37:22;0.10;;;0.10;;
28822;SDS011;15961;54.678;9.110;2023-04-21T11:39:58;0.10;;;0.10;;
28822;SDS011;15961;54.678;9.110;2023-04-21T11:42:24;0.10;;;0.10;;
28822;SDS011;15961;54.678;9.110;2023-04-21T11:44:52;0.10;;;0.10;;
28822;SDS011;15961;54.678;9.110;2023-04-21T11:47:22;0.00;;;0.00;;
28822;SDS011;15961;54.678;9.110;2023-04-21T11:49:50;0.10;;;0.10;;
28822;SDS011;15961;54.678;9.110;2023-04-21T11:52:24;0.00;;;0.00;;
28822;SDS011;15961;54.678;9.110;2023-04-21T11:54:55;0.10;;;0.10;;
28822;SDS011;15961;54.678;9.110;2023-04-21T11:57:26;0.05;;;0.05;;
28822;SDS011;15961;54.678;9.110;2023-04-21T11:59:53;0.00;;;0.00;;
28822;SDS011;15961;54.678;9.110;2023-04-21T12:02:25;0.00;;;0.00;;
28822;SDS011;15961;54.678;9.110;2023-04-21T12:04:59;0.10;;;0.10;;
28822;SDS011;15961;54.678;9.110;2023-04-21T12:07:45;0.10;;;0.10;;
28822;SDS011;15961;54.678;9.110;2023-04-21T12:10:15;0.10;;;0.10;;
28822;SDS011;15961;54.678;9.110;2023-04-21T12:12:45;0.10;;;0.10;;
28822;SDS011;15961;54.678;9.110;2023-04-21T12:15:20;0.10;;;0.10;;
28822;SDS011;15961;54.678;9.110;2023-04-21T12:20:16;0.00;;;0.00;;
28822;SDS011;15961;54.678;9.110;2023-04-21T12:22:44;0.10;;;0.10;;
28822;SDS011;15961;54.678;9.110;2023-04-21T12:25:09;0.00;;;0.00;;
28822;SDS011;15961;54.678;9.110;2023-04-21T12:27:46;0.00;;;0.00;;
28822;SDS011;15961;54.678;9.110;2023-04-21T12:30:21;0.05;;;0.05;;
28822;SDS011;15961;54.678;9.110;2023-04-21T12:32:47;0.10;;;0.10;;
28822;SDS011;15961;54.678;9.110;2023-04-21T12:35:13;0.08;;;0.08;;
28822;SDS011;15961;54.678;9.110;2023-04-21T12:37:38;0.00;;;0.00;;
28822;SDS011;15961;54.678;9.110;2023-04-21T12:40:04;0.00;;;0.00;;
28822;SDS011;15961;54.678;9.110;2023-04-21T12:45:08;0.00;;;0.00;;
28822;SDS011;15961;54.678;9.110;2023-04-21T12:47:34;0.00;;;0.00;;
28822;SDS011;15961;54.678;9.110;2023-04-21T12:50:01;0.00;;;0.00;;
28822;SDS011;15961;54.678;9.110;2023-04-21T12:52:26;0.00;;;0.00;;
28822;SDS011;15961;54.678;9.110;2023-04-21T12:54:52;0.00;;;0.00;;
28822;SDS011;15961;54.678;9.110;2023-04-21T12:57:17;0.00;;;0.00;;
28822;SDS011;15961;54.678;9.110;2023-04-21T12:59:43;0.00;;;0.00;;
28822;SDS011;15961;54.678;9.110;2023-04-21T13:02:09;0.00;;;0.00;;
28822;SDS011;15961;54.678;9.110;2023-04-21T13:04:36;0.00;;;0.00;;
28822;SDS011;15961;54.678;9.110;2023-04-21T13:07:02;0.00;;;0.00;;
28822;SDS011;15961;54.678;9.110;2023-04-21T13:09:28;0.00;;;0.00;;
28822;SDS011;15961;54.678;9.110;2023-04-21T13:11:54;0.00;;;0.00;;
28822;SDS011;15961;54.678;9.110;2023-04-21T13:14:20;0.00;;;0.00;;
28822;SDS011;15961;54.678;9.110;2023-04-21T13:16:48;0.00;;;0.00;;
28822;SDS011;15961;54.678;9.110;2023-04-21T13:19:16;0.00;;;0.00;;
28822;SDS011;15961;54.678;9.110;2023-04-21T13:21:42;0.00;;;0.00;;
28822;SDS011;15961;54.678;9.110;2023-04-21T13:24:07;0.00;;;0.00;;
28822;SDS011;15961;54.678;9.110;2023-04-21T13:26:33;0.00;;;0.00;;
28822;SDS011;15961;54.678;9.110;2023-04-21T13:28:59;0.00;;;0.00;;
28822;SDS011;15961;54.678;9.110;2023-04-21T13:31:25;0.00;;;0.00;;
28822;SDS011;15961;54.678;9.110;2023-04-21T13:33:51;0.00;;;0.00;;
28822;SDS011;15961;54.678;9.110;2023-04-21T13:36:16;0.00;;;0.00;;
28822;SDS011;15961;54.678;9.110;2023-04-21T13:38:42;0.00;;;0.00;;
28822;SDS011;15961;54.678;9.110;2023-04-21T13:41:08;0.00;;;0.00;;
28822;SDS011;15961;54.678;9.110;2023-04-21T13:43:33;0.00;;;0.00;;
28822;SDS011;15961;54.678;9.110;2023-04-21T13:45:59;0.00;;;0.00;;
28822;SDS011;15961;54.678;9.110;2023-04-21T13:48:27;0.00;;;0.00;;
28822;SDS011;15961;54.678;9.110;2023-04-21T13:50:53;0.00;;;0.00;;
28822;SDS011;15961;54.678;9.110;2023-04-21T13:53:19;0.00;;;0.00;;
28822;SDS011;15961;54.678;9.110;2023-04-21T13:55:45;0.00;;;0.00;;
28822;SDS011;15961;54.678;9.110;2023-04-21T13:58:12;0.00;;;0.00;;
28822;SDS011;15961;54.678;9.110;2023-04-21T14:00:42;0.00;;;0.00;;
28822;SDS011;15961;54.678;9.110;2023-04-21T14:03:08;0.00;;;0.00;;
28822;SDS011;15961;54.678;9.110;2023-04-21T14:05:37;0.00;;;0.00;;
28822;SDS011;15961;54.678;9.110;2023-04-21T14:08:12;0.00;;;0.00;;
28822;SDS011;15961;54.678;9.110;2023-04-21T14:10:37;0.00;;;0.00;;
28822;SDS011;15961;54.678;9.110;2023-04-21T14:13:03;0.00;;;0.00;;
28822;SDS011;15961;54.678;9.110;2023-04-21T14:15:28;0.00;;;0.00;;
28822;SDS011;15961;54.678;9.110;2023-04-21T14:17:54;0.00;;;0.00;;
28822;SDS011;15961;54.678;9.110;2023-04-21T14:20:20;0.00;;;0.00;;
28822;SDS011;15961;54.678;9.110;2023-04-21T14:22:46;0.00;;;0.00;;
28822;SDS011;15961;54.678;9.110;2023-04-21T14:25:12;0.00;;;0.00;;
28822;SDS011;15961;54.678;9.110;2023-04-21T14:27:37;0.00;;;0.00;;
28822;SDS011;15961;54.678;9.110;2023-04-21T14:30:03;0.00;;;0.00;;
28822;SDS011;15961;54.678;9.110;2023-04-21T14:32:29;0.00;;;0.00;;
28822;SDS011;15961;54.678;9.110;2023-04-21T14:34:55;0.00;;;0.00;;
28822;SDS011;15961;54.678;9.110;2023-04-21T14:37:22;0.00;;;0.00;;
28822;SDS011;15961;54.678;9.110;2023-04-21T14:39:48;0.00;;;0.00;;
28822;SDS011;15961;54.678;9.110;2023-04-21T14:42:16;0.00;;;0.00;;
28822;SDS011;15961;54.678;9.110;2023-04-21T14:44:42;0.00;;;0.00;;
28822;SDS011;15961;54.678;9.110;2023-04-21T14:47:08;0.00;;;0.00;;
28822;SDS011;15961;54.678;9.110;2023-04-21T14:49:34;0.00;;;0.00;;
28822;SDS011;15961;54.678;9.110;2023-04-21T14:51:59;0.00;;;0.00;;
28822;SDS011;15961;54.678;9.110;2023-04-21T14:54:27;0.00;;;0.00;;
28822;SDS011;15961;54.678;9.110;2023-04-21T14:56:52;0.00;;;0.00;;
28822;SDS011;15961;54.678;9.110;2023-04-21T14:59:18;0.00;;;0.00;;
28822;SDS011;15961;54.678;9.110;2023-04-21T15:01:44;0.00;;;0.00;;
28822;SDS011;15961;54.678;9.110;2023-04-21T15:04:09;0.00;;;0.00;;
28822;SDS011;15961;54.678;9.110;2023-04-21T15:06:35;0.00;;;0.00;;
28822;SDS011;15961;54.678;9.110;2023-04-21T15:09:01;0.00;;;0.00;;